createdAt,value
2022-12-27T00:02:07.924Z,2.10
2022-12-27T00:04:35.318Z,1.10
2022-12-27T00:07:02.645Z,1.42
2022-12-27T00:09:29.983Z,1.08
2022-12-27T00:11:59.927Z,2.42
2022-12-27T00:14:27.681Z,1.98
2022-12-27T00:16:54.975Z,0.98
2022-12-27T00:19:22.380Z,1.48
2022-12-27T00:21:49.685Z,1.00
2022-12-27T00:24:17.052Z,1.75
2022-12-27T00:26:44.332Z,1.20
2022-12-27T00:29:11.649Z,2.80
2022-12-27T00:31:39.085Z,1.27
2022-12-27T00:34:07.697Z,2.20
2022-12-27T00:36:35.100Z,2.05
2022-12-27T00:39:02.579Z,1.92
2022-12-27T00:41:29.959Z,1.60
2022-12-27T00:43:57.338Z,1.45
2022-12-27T00:46:24.652Z,1.48
2022-12-27T00:48:52.220Z,3.53
2022-12-27T00:51:23.429Z,2.63
2022-12-27T00:53:51.228Z,3.80
2022-12-27T00:56:28.744Z,2.22
2022-12-27T00:58:57.147Z,1.20
2022-12-27T01:01:25.488Z,3.50
2022-12-27T01:03:53.121Z,3.10
2022-12-27T01:06:21.966Z,5.28
2022-12-27T01:08:49.378Z,2.75
2022-12-27T01:11:17.185Z,3.17
2022-12-27T01:13:44.655Z,4.10
2022-12-27T01:16:13.913Z,4.57
2022-12-27T01:18:41.257Z,1.67
2022-12-27T01:21:09.392Z,2.47
2022-12-27T01:23:36.934Z,3.10
2022-12-27T01:26:05.962Z,2.13
2022-12-27T01:28:33.702Z,4.85
2022-12-27T01:31:08.272Z,2.20
2022-12-27T01:33:35.763Z,2.60
2022-12-27T01:36:13.425Z,3.60
2022-12-27T01:38:42.814Z,2.63
2022-12-27T01:41:36.363Z,3.58
2022-12-27T01:44:49.504Z,2.58
2022-12-27T01:47:23.480Z,3.75
2022-12-27T01:50:05.944Z,2.90
2022-12-27T01:52:42.357Z,2.28
2022-12-27T01:55:35.212Z,2.03
2022-12-27T01:58:21.714Z,3.67
2022-12-27T02:00:50.118Z,3.00
2022-12-27T02:03:33.137Z,4.93
2022-12-27T02:06:01.565Z,2.25
2022-12-27T02:08:32.615Z,2.63
2022-12-27T02:10:59.901Z,2.45
2022-12-27T02:13:27.723Z,4.18
2022-12-27T02:15:55.026Z,2.05
2022-12-27T02:18:22.362Z,3.67
2022-12-27T02:21:24.879Z,3.30
2022-12-27T02:24:13.342Z,3.63
2022-12-27T02:27:03.746Z,3.33
2022-12-27T02:29:43.960Z,3.33
2022-12-27T02:32:19.945Z,3.60
2022-12-27T02:35:00.468Z,3.65
2022-12-27T02:37:29.433Z,4.95
2022-12-27T02:39:56.752Z,5.43
2022-12-27T02:42:44.074Z,5.60
2022-12-27T02:45:36.840Z,3.17
2022-12-27T02:48:30.160Z,4.95
2022-12-27T02:51:36.179Z,4.95
2022-12-27T02:54:08.525Z,3.08
2022-12-27T02:57:08.924Z,3.13
2022-12-27T02:59:58.916Z,2.08
2022-12-27T03:03:14.069Z,2.72
2022-12-27T03:06:10.239Z,3.28
2022-12-27T03:08:43.473Z,5.00
2022-12-27T03:11:29.312Z,3.72
2022-12-27T03:14:34.319Z,3.83
2022-12-27T03:17:05.961Z,3.28
2022-12-27T03:19:55.627Z,2.88
2022-12-27T03:22:42.815Z,2.33
2022-12-27T03:25:28.064Z,3.83
2022-12-27T03:28:28.802Z,4.60
2022-12-27T03:31:22.635Z,3.03
2022-12-27T03:33:50.353Z,1.52
2022-12-27T03:36:40.597Z,5.43
2022-12-27T03:39:27.652Z,2.20
2022-12-27T03:42:19.373Z,2.50
2022-12-27T03:44:46.673Z,3.22
2022-12-27T03:47:38.772Z,5.63
2022-12-27T03:50:21.921Z,4.90
2022-12-27T03:52:54.754Z,2.75
2022-12-27T03:55:22.052Z,6.07
2022-12-27T03:57:49.425Z,2.08
2022-12-27T04:00:16.967Z,5.13
2022-12-27T04:02:45.509Z,2.42
2022-12-27T04:05:12.990Z,4.07
2022-12-27T04:07:58.701Z,6.18
2022-12-27T04:10:44.422Z,4.03
2022-12-27T04:13:30.223Z,3.80
2022-12-27T04:16:16.076Z,4.63
2022-12-27T04:19:02.647Z,4.95
2022-12-27T04:21:48.424Z,3.88
2022-12-27T04:24:34.078Z,3.20
2022-12-27T04:27:19.870Z,6.68
2022-12-27T04:30:05.761Z,2.92
2022-12-27T04:32:51.569Z,5.50
2022-12-27T04:35:18.871Z,3.20
2022-12-27T04:37:46.151Z,3.28
2022-12-27T04:40:32.024Z,3.85
2022-12-27T04:43:17.811Z,3.45
2022-12-27T04:46:03.956Z,2.08
2022-12-27T04:48:50.185Z,3.00
2022-12-27T04:51:35.834Z,1.95
2022-12-27T04:54:21.719Z,1.80
2022-12-27T04:56:49.058Z,1.70
2022-12-27T04:59:34.944Z,2.22
2022-12-27T05:02:05.320Z,2.42
2022-12-27T05:04:33.937Z,2.67
2022-12-27T05:07:23.999Z,2.72
2022-12-27T05:10:09.775Z,1.77
2022-12-27T05:12:55.580Z,5.18
2022-12-27T05:15:22.857Z,4.80
2022-12-27T05:17:50.179Z,5.03
2022-12-27T05:20:17.483Z,5.22
2022-12-27T05:23:03.383Z,3.75
2022-12-27T05:25:38.269Z,1.40
2022-12-27T05:28:06.595Z,2.53
2022-12-27T05:30:34.891Z,2.70
2022-12-27T05:33:02.451Z,5.38
2022-12-27T05:35:30.215Z,4.18
2022-12-27T05:37:57.614Z,3.22
2022-12-27T05:40:25.054Z,6.43
2022-12-27T05:42:52.596Z,2.35
2022-12-27T05:45:20.136Z,1.30
2022-12-27T05:47:48.385Z,4.90
2022-12-27T05:50:15.770Z,2.35
2022-12-27T05:52:43.131Z,1.70
2022-12-27T05:55:10.575Z,2.63
2022-12-27T05:57:37.930Z,5.50
2022-12-27T06:00:06.032Z,3.38
2022-12-27T06:05:08.096Z,3.17
2022-12-27T06:07:36.828Z,4.13
2022-12-27T06:10:05.796Z,1.88
2022-12-27T06:12:33.184Z,5.95
2022-12-27T06:15:00.499Z,3.70
2022-12-27T06:17:27.802Z,3.05
2022-12-27T06:19:57.198Z,3.30
2022-12-27T06:22:24.813Z,4.25
2022-12-27T06:24:52.175Z,3.83
2022-12-27T06:27:19.444Z,2.65
2022-12-27T06:29:46.803Z,3.17
2022-12-27T06:32:15.964Z,2.25
2022-12-27T06:34:44.075Z,4.82
2022-12-27T06:37:12.302Z,3.60
2022-12-27T06:39:39.657Z,5.05
2022-12-27T06:42:07.024Z,6.53
2022-12-27T06:44:34.344Z,7.82
2022-12-27T06:47:01.767Z,8.80
2022-12-27T06:49:29.390Z,5.25
2022-12-27T06:51:59.729Z,4.25
2022-12-27T06:54:27.542Z,6.32
2022-12-27T06:56:56.267Z,6.75
2022-12-27T06:59:24.126Z,5.95
2022-12-27T07:01:51.623Z,4.72
2022-12-27T07:04:19.109Z,6.05
2022-12-27T07:06:46.446Z,5.55
2022-12-27T07:09:13.743Z,7.05
2022-12-27T07:11:41.071Z,4.65
2022-12-27T07:14:09.550Z,5.03
2022-12-27T07:16:37.505Z,7.15
2022-12-27T07:19:04.897Z,3.90
2022-12-27T07:21:32.726Z,4.78
2022-12-27T07:24:00.049Z,4.95
2022-12-27T07:26:29.881Z,8.15
2022-12-27T07:28:59.195Z,5.43
2022-12-27T07:31:29.776Z,6.32
2022-12-27T07:33:57.749Z,5.93
2022-12-27T07:36:26.501Z,6.07
2022-12-27T07:38:53.870Z,6.03
2022-12-27T07:41:21.200Z,5.05
2022-12-27T07:43:48.575Z,8.30
2022-12-27T07:46:20.552Z,8.52
2022-12-27T07:48:48.097Z,5.03
2022-12-27T07:51:16.553Z,5.80
2022-12-27T07:53:43.926Z,7.18
2022-12-27T07:56:13.499Z,5.93
2022-12-27T07:58:44.651Z,5.82
2022-12-27T08:01:12.380Z,7.82
2022-12-27T08:03:40.264Z,9.02
2022-12-27T08:06:08.252Z,6.22
2022-12-27T08:08:42.893Z,8.65
2022-12-27T08:11:10.214Z,11.63
2022-12-27T08:13:37.635Z,5.70
2022-12-27T08:16:05.390Z,5.93
2022-12-27T08:18:33.455Z,6.95
2022-12-27T08:21:00.768Z,5.28
2022-12-27T08:23:28.051Z,9.18
2022-12-27T08:25:55.361Z,7.40
2022-12-27T08:28:22.655Z,4.82
2022-12-27T08:30:49.973Z,8.75
2022-12-27T08:33:17.339Z,4.35
2022-12-27T08:35:54.017Z,7.88
2022-12-27T08:38:21.606Z,7.00
2022-12-27T08:40:48.913Z,4.18
2022-12-27T08:43:16.307Z,9.15
2022-12-27T08:45:43.645Z,4.32
2022-12-27T08:48:11.104Z,6.05
2022-12-27T08:50:38.502Z,8.02
2022-12-27T08:53:06.723Z,13.70
2022-12-27T08:55:34.256Z,6.80
2022-12-27T08:58:09.358Z,7.55
2022-12-27T09:00:42.909Z,8.93
2022-12-27T09:03:10.337Z,8.43
2022-12-27T09:05:41.688Z,6.53
2022-12-27T09:08:10.630Z,12.10
2022-12-27T09:10:38.363Z,7.15
2022-12-27T09:13:05.732Z,4.93
2022-12-27T09:15:33.143Z,5.32
2022-12-27T09:18:01.434Z,3.40
2022-12-27T09:20:28.746Z,11.75
2022-12-27T09:22:56.016Z,7.97
2022-12-27T09:25:23.367Z,10.23
2022-12-27T09:27:50.728Z,6.35
2022-12-27T09:30:18.152Z,5.65
2022-12-27T09:32:45.453Z,6.32
2022-12-27T09:35:12.744Z,4.88
2022-12-27T09:37:40.029Z,6.82
2022-12-27T09:40:08.058Z,4.70
2022-12-27T09:43:00.715Z,4.07
2022-12-27T09:45:37.018Z,6.25
2022-12-27T09:48:33.398Z,3.45
2022-12-27T09:51:06.897Z,4.38
2022-12-27T09:53:37.177Z,4.00
2022-12-27T09:56:05.043Z,5.38
2022-12-27T09:58:43.218Z,4.55
2022-12-27T10:01:26.358Z,5.97
2022-12-27T10:03:54.130Z,5.55
2022-12-27T10:06:30.595Z,6.47
2022-12-27T10:09:21.404Z,5.72
2022-12-27T10:12:11.770Z,7.38
2022-12-27T10:14:59.818Z,3.15
2022-12-27T10:17:53.459Z,2.88
2022-12-27T10:20:48.999Z,5.25
2022-12-27T10:23:20.813Z,3.83
2022-12-27T10:25:48.185Z,5.47
2022-12-27T10:28:23.009Z,4.45
2022-12-27T10:30:50.381Z,3.03
2022-12-27T10:33:28.362Z,9.18
2022-12-27T10:35:55.773Z,3.67
2022-12-27T10:38:24.481Z,6.45
2022-12-27T10:40:56.431Z,7.78
2022-12-27T10:43:26.595Z,1.63
2022-12-27T10:45:53.981Z,4.38
2022-12-27T10:48:22.015Z,2.70
2022-12-27T10:50:53.426Z,2.10
2022-12-27T10:53:27.482Z,6.18
2022-12-27T10:56:15.483Z,5.53
2022-12-27T10:58:56.516Z,3.45
2022-12-27T11:01:29.953Z,6.57
2022-12-27T11:04:20.610Z,1.98
2022-12-27T11:06:59.924Z,4.85
2022-12-27T11:09:28.475Z,3.13
2022-12-27T11:12:24.455Z,2.28
2022-12-27T11:15:02.599Z,3.80
2022-12-27T11:17:41.192Z,3.20
2022-12-27T11:20:12.247Z,5.80
2022-12-27T11:22:49.781Z,7.80
2022-12-27T11:25:17.095Z,3.30
2022-12-27T11:27:48.568Z,3.92
2022-12-27T11:30:42.330Z,1.67
2022-12-27T11:33:24.601Z,6.25
2022-12-27T11:35:54.270Z,4.97
2022-12-27T11:38:27.364Z,1.98
2022-12-27T11:41:14.337Z,4.75
2022-12-27T11:43:49.387Z,5.57
2022-12-27T11:46:30.995Z,2.97
2022-12-27T11:48:58.817Z,4.88
2022-12-27T11:51:57.257Z,3.67
2022-12-27T11:54:33.437Z,4.70
2022-12-27T11:57:41.119Z,3.63
2022-12-27T12:00:23.784Z,6.78
2022-12-27T12:03:08.576Z,4.32
2022-12-27T12:05:41.775Z,2.88
2022-12-27T12:08:20.366Z,6.88
2022-12-27T12:11:23.043Z,2.40
2022-12-27T12:14:23.668Z,5.63
2022-12-27T12:16:56.991Z,4.38
2022-12-27T12:20:02.738Z,3.50
2022-12-27T12:23:00.013Z,3.10
2022-12-27T12:25:48.086Z,5.97
2022-12-27T12:28:57.162Z,5.07
2022-12-27T12:31:35.845Z,6.85
2022-12-27T12:34:32.330Z,3.22
2022-12-27T12:37:25.651Z,5.13
2022-12-27T12:40:08.092Z,6.63
2022-12-27T12:42:43.966Z,4.80
2022-12-27T12:45:24.849Z,5.65
2022-12-27T12:47:52.222Z,3.70
2022-12-27T12:50:52.661Z,4.53
2022-12-27T12:53:41.774Z,5.05
2022-12-27T12:56:49.741Z,2.67
2022-12-27T12:59:26.823Z,6.90
2022-12-27T13:02:12.200Z,6.75
2022-12-27T13:05:11.236Z,4.78
2022-12-27T13:08:11.014Z,3.67
2022-12-27T13:11:03.452Z,6.10
2022-12-27T13:13:36.839Z,5.78
2022-12-27T13:16:10.278Z,5.07
2022-12-27T13:18:56.359Z,6.90
2022-12-27T13:21:27.937Z,17.05
2022-12-27T13:24:07.659Z,6.78
2022-12-27T13:26:52.534Z,5.75
2022-12-27T13:29:38.348Z,7.85
2022-12-27T13:32:27.778Z,6.95
2022-12-27T13:35:02.963Z,6.82
2022-12-27T13:37:59.613Z,9.15
2022-12-27T13:40:51.626Z,5.88
2022-12-27T13:43:38.840Z,2.92
2022-12-27T13:46:25.761Z,4.07
2022-12-27T13:49:07.855Z,4.68
2022-12-27T13:51:48.046Z,8.00
2022-12-27T13:54:39.665Z,7.50
2022-12-27T13:57:53.305Z,6.57
2022-12-27T14:00:22.221Z,4.20
2022-12-27T14:02:49.598Z,6.10
2022-12-27T14:05:35.605Z,7.32
2022-12-27T14:08:09.876Z,7.75
2022-12-27T14:13:08.477Z,4.82
2022-12-27T14:15:58.912Z,4.78
2022-12-27T14:18:38.227Z,3.75
2022-12-27T14:21:17.613Z,4.70
2022-12-27T14:24:18.799Z,9.65
2022-12-27T14:26:58.167Z,7.68
2022-12-27T14:29:33.662Z,6.68
2022-12-27T14:32:09.080Z,7.50
2022-12-27T14:34:42.182Z,7.28
2022-12-27T14:37:39.335Z,4.25
2022-12-27T14:40:34.789Z,5.45
2022-12-27T14:43:42.539Z,8.88
2022-12-27T14:46:30.950Z,5.00
2022-12-27T14:49:31.966Z,5.47
2022-12-27T14:52:12.827Z,6.13
2022-12-27T14:55:05.386Z,10.73
2022-12-27T14:57:33.985Z,7.30
2022-12-27T15:00:17.419Z,7.90
2022-12-27T15:03:15.360Z,5.13
2022-12-27T15:05:48.455Z,6.90
2022-12-27T15:08:58.732Z,6.22
2022-12-27T15:12:11.760Z,6.75
2022-12-27T15:14:43.964Z,6.55
2022-12-27T15:17:16.921Z,9.23
2022-12-27T15:20:07.426Z,8.98
2022-12-27T15:22:59.397Z,12.45
2022-12-27T15:25:47.610Z,7.95
2022-12-27T15:28:39.076Z,10.10
2022-12-27T15:31:22.732Z,8.73
2022-12-27T15:34:10.378Z,11.45
2022-12-27T15:36:42.564Z,24.88
2022-12-27T15:39:34.943Z,9.90
2022-12-27T15:42:22.911Z,8.60
2022-12-27T15:45:01.071Z,8.82
2022-12-27T15:47:43.678Z,11.40
2022-12-27T15:50:39.548Z,7.60
2022-12-27T15:53:35.924Z,13.13
2022-12-27T15:56:24.415Z,10.90
2022-12-27T15:59:39.583Z,9.02
2022-12-27T16:02:26.387Z,8.57
2022-12-27T16:05:09.037Z,15.32
2022-12-27T16:07:43.115Z,8.73
2022-12-27T16:10:29.197Z,12.43
2022-12-27T16:13:11.318Z,11.77
2022-12-27T16:15:43.338Z,10.10
2022-12-27T16:18:19.879Z,12.70
2022-12-27T16:21:05.649Z,8.23
2022-12-27T16:23:34.011Z,7.75
2022-12-27T16:26:02.185Z,13.18
2022-12-27T16:28:30.219Z,12.35
2022-12-27T16:31:06.333Z,9.32
2022-12-27T16:33:40.039Z,10.50
2022-12-27T16:36:19.546Z,13.98
2022-12-27T16:39:11.553Z,14.65
2022-12-27T16:41:57.020Z,11.77
2022-12-27T16:44:24.358Z,13.00
2022-12-27T16:47:21.334Z,7.88
2022-12-27T16:50:04.156Z,12.98
2022-12-27T16:52:47.385Z,11.35
2022-12-27T16:55:49.055Z,15.20
2022-12-27T16:58:16.363Z,8.68
2022-12-27T17:00:44.771Z,10.02
2022-12-27T17:03:20.860Z,7.63
2022-12-27T17:06:21.631Z,9.88
2022-12-27T17:08:37.101Z,7.68
2022-12-27T17:11:23.578Z,10.55
2022-12-27T17:13:55.361Z,9.02
2022-12-27T17:16:26.776Z,9.82
2022-12-27T17:18:57.852Z,9.68
2022-12-27T17:21:30.442Z,10.93
2022-12-27T17:24:00.220Z,15.23
2022-12-27T17:26:55.214Z,11.30
2022-12-27T17:29:31.667Z,11.88
2022-12-27T17:32:28.819Z,18.02
2022-12-27T17:35:24.517Z,22.25
2022-12-27T17:38:11.796Z,12.48
2022-12-27T17:40:46.173Z,12.98
2022-12-27T17:43:43.137Z,18.48
2022-12-27T17:46:45.665Z,12.80
2022-12-27T17:49:13.012Z,13.30
2022-12-27T17:52:02.002Z,13.02
2022-12-27T17:54:48.185Z,11.73
2022-12-27T17:57:35.092Z,10.05
2022-12-27T18:00:02.788Z,15.95
2022-12-27T18:02:39.282Z,10.07
2022-12-27T18:05:11.155Z,10.43
2022-12-27T18:07:38.472Z,11.07
2022-12-27T18:10:25.649Z,13.07
2022-12-27T18:12:54.553Z,13.63
2022-12-27T18:15:23.589Z,8.65
2022-12-27T18:17:55.766Z,33.30
2022-12-27T18:20:26.162Z,11.93
2022-12-27T18:23:03.038Z,10.10
2022-12-27T18:25:36.499Z,10.50
2022-12-27T18:28:19.114Z,13.25
2022-12-27T18:30:57.034Z,12.43
2022-12-27T18:33:32.909Z,11.77
2022-12-27T18:36:01.362Z,11.75
2022-12-27T18:38:52.266Z,15.60
2022-12-27T18:41:20.450Z,12.05
2022-12-27T18:43:49.343Z,11.63
2022-12-27T18:46:27.377Z,12.25
2022-12-27T18:48:54.709Z,15.32
2022-12-27T18:51:35.112Z,14.80
2022-12-27T18:54:02.462Z,9.52
2022-12-27T18:56:33.364Z,12.73
2022-12-27T18:59:06.594Z,11.65
2022-12-27T19:01:42.780Z,9.27
2022-12-27T19:04:19.165Z,18.23
2022-12-27T19:06:50.554Z,9.07
2022-12-27T19:09:18.445Z,8.55
2022-12-27T19:11:53.591Z,7.90
2022-12-27T19:14:21.354Z,9.45
2022-12-27T19:16:54.157Z,14.70
2022-12-27T19:19:26.526Z,19.02
2022-12-27T19:21:54.067Z,17.98
2022-12-27T19:24:26.370Z,10.93
2022-12-27T19:26:54.652Z,15.45
2022-12-27T19:29:23.411Z,10.85
2022-12-27T19:31:58.841Z,13.38
2022-12-27T19:34:27.389Z,12.88
2022-12-27T19:36:54.873Z,10.60
2022-12-27T19:39:33.345Z,10.93
2022-12-27T19:42:06.536Z,15.23
2022-12-27T19:44:33.881Z,15.48
2022-12-27T19:47:01.188Z,15.35
2022-12-27T19:49:44.919Z,16.60
2022-12-27T19:52:16.816Z,20.65
2022-12-27T19:54:44.238Z,14.80
2022-12-27T19:57:12.556Z,16.70
2022-12-27T19:59:39.855Z,16.50
2022-12-27T20:02:07.564Z,12.23
2022-12-27T20:04:35.088Z,17.35
2022-12-27T20:07:02.632Z,17.10
2022-12-27T20:09:29.998Z,21.15
2022-12-27T20:11:57.307Z,18.35
2022-12-27T20:14:24.643Z,14.13
2022-12-27T20:16:52.096Z,15.75
2022-12-27T20:19:20.242Z,16.42
2022-12-27T20:21:47.936Z,20.83
2022-12-27T20:24:15.381Z,19.67
2022-12-27T20:26:43.164Z,18.98
2022-12-27T20:29:11.216Z,19.83
2022-12-27T20:31:44.756Z,21.67
2022-12-27T20:34:12.906Z,21.35
2022-12-27T20:36:41.542Z,16.45
2022-12-27T20:39:09.590Z,17.45
2022-12-27T20:41:37.036Z,18.58
2022-12-27T20:44:04.536Z,17.55
2022-12-27T20:46:31.858Z,16.83
2022-12-27T20:49:00.329Z,20.23
2022-12-27T20:51:28.263Z,18.60
2022-12-27T20:53:56.675Z,21.55
2022-12-27T20:56:24.223Z,21.40
2022-12-27T20:58:51.654Z,18.92
2022-12-27T21:01:20.984Z,15.23
2022-12-27T21:03:48.492Z,17.33
2022-12-27T21:06:17.930Z,15.43
2022-12-27T21:08:49.117Z,21.30
2022-12-27T21:11:24.081Z,15.57
2022-12-27T21:13:51.458Z,16.13
2022-12-27T21:16:23.653Z,18.67
2022-12-27T21:18:51.018Z,18.67
2022-12-27T21:21:20.260Z,16.70
2022-12-27T21:23:47.920Z,17.05
2022-12-27T21:26:16.981Z,18.58
2022-12-27T21:28:44.434Z,14.65
2022-12-27T21:31:12.684Z,14.20
2022-12-27T21:33:40.029Z,15.82
2022-12-27T21:36:11.686Z,17.25
2022-12-27T21:38:39.051Z,16.10
2022-12-27T21:41:09.646Z,19.30
2022-12-27T21:43:36.976Z,13.80
2022-12-27T21:46:15.151Z,18.05
2022-12-27T21:48:43.028Z,14.70
2022-12-27T21:51:12.202Z,17.60
2022-12-27T21:53:39.971Z,14.35
2022-12-27T21:56:07.559Z,16.08
2022-12-27T21:58:35.988Z,14.45
2022-12-27T22:01:08.829Z,14.45
2022-12-27T22:03:37.458Z,12.07
2022-12-27T22:06:21.158Z,11.60
2022-12-27T22:08:49.803Z,12.83
2022-12-27T22:11:17.565Z,16.90
2022-12-27T22:13:45.121Z,11.43
2022-12-27T22:16:14.024Z,11.32
2022-12-27T22:18:42.773Z,10.80
2022-12-27T22:21:11.669Z,13.45
2022-12-27T22:23:41.142Z,11.77
2022-12-27T22:26:12.908Z,12.02
2022-12-27T22:28:40.699Z,13.07
2022-12-27T22:31:09.279Z,12.73
2022-12-27T22:33:36.735Z,11.48
2022-12-27T22:36:12.213Z,10.70
2022-12-27T22:38:40.772Z,10.35
2022-12-27T22:41:20.102Z,11.30
2022-12-27T22:44:01.201Z,11.77
2022-12-27T22:46:39.328Z,10.43
2022-12-27T22:49:16.159Z,9.82
2022-12-27T22:51:43.655Z,9.60
2022-12-27T22:54:11.062Z,12.48
2022-12-27T22:56:39.725Z,10.25
2022-12-27T22:59:08.094Z,13.02
2022-12-27T23:01:36.028Z,12.75
2022-12-27T23:04:04.886Z,9.88
2022-12-27T23:06:33.059Z,14.50
2022-12-27T23:09:00.625Z,8.68
2022-12-27T23:11:29.728Z,8.80
2022-12-27T23:13:58.549Z,10.48
2022-12-27T23:16:26.017Z,10.43
2022-12-27T23:18:53.458Z,10.25
2022-12-27T23:21:24.479Z,10.80
2022-12-27T23:23:52.545Z,10.95
2022-12-27T23:26:21.743Z,7.90
2022-12-27T23:28:50.159Z,10.82
2022-12-27T23:31:17.945Z,9.40
2022-12-27T23:33:45.368Z,9.18
2022-12-27T23:36:12.962Z,11.25
2022-12-27T23:38:41.444Z,11.05
2022-12-27T23:41:09.126Z,7.93
2022-12-27T23:43:55.339Z,7.20
2022-12-27T23:46:33.428Z,7.68
2022-12-27T23:49:02.115Z,10.57
2022-12-27T23:51:30.580Z,8.40
2022-12-27T23:53:57.986Z,9.10
2022-12-27T23:56:29.903Z,9.85
2022-12-27T23:58:58.041Z,7.65
